Time;durP1;ratioP1;P1;durP2;ratioP2;P2;SDS_P1;SDS_P2;PMS_P1;PMS_P2;Temp;Humidity;BMP_temperature;BMP_pressure;BME280_temperature;BME280_humidity;BME280_pressure;Samples;Min_cycle;Max_cycle;Signal;HPM_P1;HPM_P2
2024/03/08 00:03:23;;;;;;;62.60;30.40;;;;;;;-1.64;82.56;99286.55;435656;1254;107105;-40
2024/03/08 00:13:30;;;;;;;70.30;35.10;;;;;;;-1.69;82.98;99279.71;435763;1254;96632;-39
2024/03/08 00:23:37;;;;;;;84.50;36.50;;;;;;;-1.83;82.78;99286.99;435694;1253;110811;-40
2024/03/08 00:33:44;;;;;;;55.40;30.80;;;;;;;-1.85;83.04;99283.18;435604;1251;107317;-40
2024/03/08 00:43:51;;;;;;;46.10;24.30;;;;;;;-1.82;82.99;99282.28;435658;1253;96695;-40
2024/03/08 00:53:58;;;;;;;66.20;32.50;;;;;;;-1.77;83.22;99278.87;435675;1252;110125;-40
2024/03/08 01:04:07;;;;;;;72.20;35.10;;;;;;;-1.90;83.11;99274.83;435785;1251;107995;-40
2024/03/08 01:14:13;;;;;;;69.70;33.30;;;;;;;-2.11;83.11;99274.45;435897;1254;98042;-40
2024/03/08 01:24:21;;;;;;;61.30;30.20;;;;;;;-2.30;83.43;99270.05;435775;1252;97779;-39
2024/03/08 01:44:34;;;;;;;42.30;26.70;;;;;;;-2.33;83.35;99251.83;435789;1253;107409;-40
2024/03/08 01:54:42;;;;;;;55.60;29.70;;;;;;;-2.17;83.99;99242.61;435822;1254;97867;-40
2024/03/08 02:04:52;;;;;;;58.20;29.40;;;;;;;-2.23;83.84;99234.54;435732;1252;108281;-38
2024/03/08 02:15:00;;;;;;;59.70;27.80;;;;;;;-2.32;84.10;99225.64;435793;1248;120558;-39
2024/03/08 02:25:06;;;;;;;55.20;31.00;;;;;;;-2.45;84.09;99219.38;435850;1254;97865;-37
2024/03/08 02:35:13;;;;;;;46.70;27.30;;;;;;;-2.54;83.97;99219.13;436630;1248;109847;-39
2024/03/08 02:55:27;;;;;;;49.50;26.50;;;;;;;-2.49;84.37;99215.88;435840;1249;118769;-40
2024/03/08 03:25:48;;;;;;;57.40;28.50;;;;;;;-2.68;84.72;99213.73;435544;1254;97476;-40
2024/03/08 03:35:55;;;;;;;52.40;28.20;;;;;;;-2.75;84.61;99214.00;435719;1252;110478;-39
2024/03/08 03:46:02;;;;;;;48.00;26.80;;;;;;;-2.73;84.61;99208.89;435816;1254;107423;-39
2024/03/08 03:56:10;;;;;;;58.60;32.20;;;;;;;-2.71;84.83;99207.27;435862;1250;96632;-39
2024/03/08 04:06:17;;;;;;;68.00;35.10;;;;;;;-2.78;84.94;99208.44;435722;1252;110046;-38
2024/03/08 04:26:31;;;;;;;62.10;32.10;;;;;;;-3.46;84.16;99207.25;435403;1252;634024;-39
2024/03/08 04:36:39;;;;;;;67.40;33.80;;;;;;;-3.78;84.55;99207.60;435776;1254;110732;-39
2024/03/08 04:46:46;;;;;;;60.70;33.80;;;;;;;-3.67;85.17;99208.11;435683;1253;109874;-39
2024/03/08 04:56:54;;;;;;;58.40;32.00;;;;;;;-3.53;85.01;99205.38;435855;1248;96638;-38
2024/03/08 05:17:09;;;;;;;67.40;35.40;;;;;;;-3.20;85.48;99204.52;435800;1252;106517;-40
2024/03/08 05:27:16;;;;;;;71.30;35.00;;;;;;;-3.20;85.59;99209.90;435905;1249;97864;-38
2024/03/08 05:37:24;;;;;;;70.00;35.50;;;;;;;-3.26;85.31;99210.26;436004;1252;110388;-40
2024/03/08 05:47:32;;;;;;;74.50;38.00;;;;;;;-3.29;85.60;99203.90;436065;1249;107130;-40
2024/03/08 06:17:52;;;;;;;56.50;29.80;;;;;;;-2.08;86.60;99206.59;435934;1250;108822;-40
2024/03/08 06:27:58;;;;;;;;;;;;;;;-1.01;87.01;99207.27;435925;1252;97899;-38
2024/03/08 06:38:06;;;;;;;69.30;34.50;;;;;;;-0.56;86.25;99207.02;435685;1252;109918;-41
2024/03/08 06:48:13;;;;;;;52.60;27.10;;;;;;;-0.04;86.13;99201.21;436009;1248;108392;-40
2024/03/08 06:58:20;;;;;;;45.90;27.60;;;;;;;0.52;85.65;99201.48;435900;1248;97990;-38
2024/03/08 07:08:28;;;;;;;62.60;32.50;;;;;;;1.24;85.48;99203.94;435911;1249;109566;-39
2024/03/08 07:18:36;;;;;;;72.00;35.70;;;;;;;1.44;84.66;99204.95;435929;1252;108419;-39
2024/03/08 07:28:43;;;;;;;80.70;38.20;;;;;;;1.00;84.10;99208.34;435907;1252;97178;-40
2024/03/08 07:38:50;;;;;;;73.40;36.60;;;;;;;1.05;84.36;99207.20;435869;1249;97363;-41
2024/03/08 07:48:58;;;;;;;41.30;23.50;;;;;;;1.45;84.02;99207.67;435782;1252;111051;-40
2024/03/08 07:59:06;;;;;;;51.00;27.60;;;;;;;1.95;84.19;99204.15;435743;1249;107255;-40
2024/03/08 08:19:21;;;;;;;47.40;25.60;;;;;;;2.85;83.13;99190.03;435772;1254;109679;-38
2024/03/08 08:29:28;;;;;;;41.90;24.50;;;;;;;3.17;82.21;99185.35;435802;1251;109562;-39
2024/03/08 08:39:35;;;;;;;48.20;25.60;;;;;;;3.37;81.16;99187.20;435740;1249;96661;-40
2024/03/08 08:59:50;;;;;;;36.70;22.30;;;;;;;2.94;79.05;99178.39;435887;1252;109894;-38
2024/03/08 09:30:13;;;;;;;41.40;23.60;;;;;;;3.45;77.04;99164.19;435815;1252;97148;-40
2024/03/08 09:40:23;;;;;;;42.00;22.40;;;;;;;3.37;75.06;99161.95;435717;1252;109830;-40
2024/03/08 09:50:32;;;;;;;40.30;23.80;;;;;;;3.57;75.11;99144.35;435909;1252;108459;-39
2024/03/08 10:00:40;;;;;;;38.50;22.80;;;;;;;3.65;74.78;99132.99;435736;1252;97890;-42
2024/03/08 10:21:05;;;;;;;37.50;21.80;;;;;;;3.84;73.30;99118.32;435795;1252;110470;-39
2024/03/08 10:41:17;;;;;;;37.10;21.80;;;;;;;4.11;72.66;99114.48;435749;1249;97950;-38
2024/03/08 11:01:32;;;;;;;36.10;19.90;;;;;;;4.57;71.12;99108.60;435638;1252;112295;-40
2024/03/08 11:11:42;;;;;;;30.50;18.80;;;;;;;4.75;69.89;99103.34;435667;1250;108490;-39
2024/03/08 11:32:05;;;;;;;42.50;20.00;;;;;;;5.21;69.47;99074.48;435594;1252;97550;-39
2024/03/08 11:42:11;;;;;;;29.50;18.60;;;;;;;5.32;67.18;99070.17;435482;1252;108871;-40
2024/03/08 11:52:18;;;;;;;31.20;17.40;;;;;;;5.36;67.13;99057.06;435652;1250;107498;-40
2024/03/08 12:02:25;;;;;;;28.10;18.30;;;;;;;5.52;66.87;99047.56;435699;1252;97876;-39
2024/03/08 12:12:33;;;;;;;29.80;17.90;;;;;;;5.68;65.83;99035.16;435524;1252;97850;-40
2024/03/08 12:22:42;;;;;;;24.10;15.70;;;;;;;5.83;66.59;99024.55;435651;1252;110452;-38
2024/03/08 12:32:49;;;;;;;30.00;15.70;;;;;;;5.98;65.98;99020.48;435536;1252;108157;-40
2024/03/08 12:42:55;;;;;;;26.20;15.70;;;;;;;5.96;64.78;99010.96;435700;1252;100138;-38
2024/03/08 12:53:01;;;;;;;25.50;15.30;;;;;;;5.97;63.55;98996.20;435735;1250;97870;-40
2024/03/08 13:13:19;;;;;;;29.60;15.60;;;;;;;6.18;62.86;98977.22;435601;1250;108189;-40
2024/03/08 13:23:28;;;;;;;24.20;14.50;;;;;;;6.38;62.32;98971.88;435509;1252;97897;-39
2024/03/08 13:43:40;;;;;;;23.80;14.80;;;;;;;6.24;60.81;98954.38;435636;1252;110099;-40
2024/03/08 13:53:46;;;;;;;25.20;13.70;;;;;;;6.27;62.21;98945.44;435727;1249;107730;-39
2024/03/08 14:03:53;;;;;;;27.30;15.20;;;;;;;6.27;62.09;98927.73;435485;1250;97960;-40
2024/03/08 14:14:01;;;;;;;22.20;13.90;;;;;;;6.21;61.75;98930.39;435645;1252;96653;-40
2024/03/08 14:24:07;;;;;;;26.90;15.60;;;;;;;6.24;62.09;98923.04;435473;1252;110494;-40
2024/03/08 14:44:22;;;;;;;26.50;16.50;;;;;;;6.23;60.74;98908.65;435395;1252;96630;-40
2024/03/08 14:54:30;;;;;;;25.00;13.90;;;;;;;6.18;61.83;98908.63;435493;1252;97874;-39
2024/03/08 15:04:37;;;;;;;27.30;16.00;;;;;;;6.13;61.55;98893.38;435539;1252;110553;-41
2024/03/08 15:24:51;;;;;;;29.70;17.10;;;;;;;5.94;62.34;98885.84;435513;1249;97753;-40
2024/03/08 15:34:57;;;;;;;24.50;15.90;;;;;;;5.83;62.87;98896.00;435476;1252;97877;-40
2024/03/08 15:45:08;;;;;;;36.80;18.10;;;;;;;5.66;63.50;98896.17;435488;1252;109516;-39
2024/03/08 16:05:22;;;;;;;33.20;16.40;;;;;;;5.23;64.20;98894.95;435536;1252;97450;-40
2024/03/08 16:25:34;;;;;;;35.70;18.20;;;;;;;4.69;64.41;98891.73;435333;1249;424201;-41
2024/03/08 16:35:43;;;;;;;33.50;19.20;;;;;;;4.39;64.70;98893.84;435642;1252;108029;-41
2024/03/08 16:45:53;;;;;;;42.80;21.60;;;;;;;4.06;65.24;98894.91;435596;1252;97824;-39
2024/03/08 16:56:00;;;;;;;41.00;19.90;;;;;;;3.77;65.38;98890.89;435474;1252;98007;-39
2024/03/08 17:06:05;;;;;;;53.10;26.90;;;;;;;3.51;65.76;98891.64;435324;1252;111638;-39
2024/03/08 17:16:12;;;;;;;54.20;27.50;;;;;;;3.25;66.11;98892.42;435554;1250;97461;-40
2024/03/08 17:26:20;;;;;;;51.30;27.60;;;;;;;2.94;66.58;98894.39;435388;1252;97461;-39
2024/03/08 17:36:27;;;;;;;51.90;26.90;;;;;;;2.64;66.97;98887.66;435637;1252;96611;-39
2024/03/08 17:46:34;;;;;;;48.90;27.30;;;;;;;2.37;67.46;98879.10;435505;1252;111760;-39
2024/03/08 17:56:40;;;;;;;60.30;30.50;;;;;;;2.11;67.89;98881.73;435366;1250;107803;-40
2024/03/08 18:16:56;;;;;;;49.90;29.70;;;;;;;1.72;68.75;98876.50;435485;1252;109590;-40
2024/03/08 18:27:03;;;;;;;82.40;39.60;;;;;;;1.60;69.25;98879.08;435630;1254;120776;-39
2024/03/08 18:37:12;;;;;;;106.00;47.60;;;;;;;1.42;69.68;98880.00;435538;1252;98138;-40
2024/03/08 18:47:21;;;;;;;117.00;51.80;;;;;;;1.16;70.16;98879.80;435454;1252;109394;-40
2024/03/08 19:07:36;;;;;;;120.20;59.30;;;;;;;0.68;70.87;98874.36;435502;1261;97868;-40
2024/03/08 19:17:43;;;;;;;127.20;58.70;;;;;;;0.45;71.08;98872.70;435631;1252;97857;-40
2024/03/08 19:27:51;;;;;;;91.50;47.80;;;;;;;0.31;71.38;98867.81;435448;1261;108409;-42
2024/03/08 19:37:59;;;;;;;97.50;47.70;;;;;;;0.25;71.55;98868.88;435454;1252;107372;-38
2024/03/08 19:58:16;;;;;;;193.60;80.10;;;;;;;-0.08;72.52;98861.40;435620;1252;109491;-39
2024/03/08 20:08:27;;;;;;;159.40;68.40;;;;;;;-0.26;72.85;98857.39;435681;1254;108002;-39
2024/03/08 20:18:36;;;;;;;135.60;63.90;;;;;;;-0.47;73.28;98857.54;435593;1258;97881;-40
2024/03/08 20:38:49;;;;;;;94.30;48.40;;;;;;;-0.54;73.79;98851.84;435576;1253;107533;-40
2024/03/08 20:48:56;;;;;;;163.00;68.30;;;;;;;-0.55;74.13;98845.59;435472;1261;97901;-40
2024/03/08 20:59:04;;;;;;;159.40;69.80;;;;;;;-0.68;74.46;98844.98;435575;1251;110025;-39
2024/03/08 21:09:11;;;;;;;144.90;65.90;;;;;;;-0.81;74.93;98840.92;435632;1254;107563;-39
2024/03/08 21:29:25;;;;;;;121.10;57.10;;;;;;;-1.08;75.31;98822.27;435465;1253;96651;-39
2024/03/08 21:39:31;;;;;;;105.60;54.20;;;;;;;-1.10;75.52;98807.28;435549;1248;110019;-39
2024/03/08 21:59:45;;;;;;;127.80;61.50;;;;;;;-0.98;75.93;98797.36;435689;1254;96600;-40
2024/03/08 22:09:52;;;;;;;127.00;60.90;;;;;;;-1.03;76.41;98789.96;435747;1254;107861;-40
2024/03/08 22:50:18;;;;;;;171.70;75.80;;;;;;;-1.89;76.76;98771.20;435692;1253;108530;-40
2024/03/08 23:10:49;;;;;;;141.90;69.60;;;;;;;-1.96;77.41;98755.66;435832;1251;108377;-40
2024/03/08 23:20:56;;;;;;;126.80;59.20;;;;;;;-1.70;77.99;98757.52;435587;1252;97887;-40
2024/03/08 23:41:10;;;;;;;151.20;68.40;;;;;;;-1.67;78.24;98753.89;435794;1252;107605;-40
2024/03/08 23:51:18;;;;;;;147.20;64.70;;;;;;;-1.82;78.10;98748.32;435827;1251;107699;-39
